MUP weather

Mulga Park Airport
Northern Territory, Australia

Public forecast

Using degrees Celsius for public forecast. Weather courtesy of forecast.io.

METAR (pilot weather report)

Closest report is Ayers Rock Connellan Airport, 54.5 nm (100.9 km) NW. Retrieved 2019/03/26 05:00 UTC (50 minutes ago):

YAYE 260500Z AUTO 13011KT 9999 // NCD 29/M01 Q1017

TAF (pilot weather forecast)

Forecast is more than 12 hours old.

Closest forecast is Alice Springs Airport, 173.9 nm (322.1 km) NE. Retrieved 2019/03/25 00:00 UTC (1 day ago):

TAF YBAS 252317Z 2600/2624 14018G28KT CAVOK FM260900 14010KT CAVOK FM262300 14014KT CAVOK